Time;durP1;ratioP1;P1;durP2;ratioP2;P2;SDS_P1;SDS_P2;PMS_P1;PMS_P2;Temp;Humidity;BMP_temperature;BMP_pressure;BME280_temperature;BME280_humidity;BME280_pressure;Samples;Min_cycle;Max_cycle;Signal;HPM_P1;HPM_P2
2023/07/04 00:00:41;;;;;;;10.00;4.13;;;;;;;17.62;56.06;100132.47;5009220;28;20211;-83
2023/07/04 00:03:07;;;;;;;10.90;5.13;;;;;;;17.61;56.14;100131.63;5011450;28;20201;-82
2023/07/04 00:05:34;;;;;;;10.73;4.07;;;;;;;17.58;56.29;100137.31;5010847;28;20236;-83
2023/07/04 00:08:00;;;;;;;10.80;4.73;;;;;;;17.56;56.34;100136.59;5011842;28;20219;-83
2023/07/04 00:10:27;;;;;;;9.87;4.17;;;;;;;17.54;56.32;100135.94;5012587;28;20204;-83
2023/07/04 00:12:53;;;;;;;9.10;4.30;;;;;;;17.51;56.61;100130.00;5012159;28;20301;-83
2023/07/04 00:15:20;;;;;;;9.90;4.77;;;;;;;17.47;56.73;100139.41;5012180;28;20226;-82
2023/07/04 00:17:50;;;;;;;11.13;4.53;;;;;;;17.44;56.64;100134.31;5000563;28;20215;-82
2023/07/04 00:20:16;;;;;;;10.37;3.97;;;;;;;17.42;56.58;100130.94;4992026;28;20306;-82
2023/07/04 00:22:44;;;;;;;9.97;4.03;;;;;;;17.37;56.57;100138.63;5010629;28;20213;-84
2023/07/04 00:25:11;;;;;;;8.57;3.77;;;;;;;17.33;56.77;100143.47;5011574;28;20223;-82
2023/07/04 00:27:39;;;;;;;9.97;3.70;;;;;;;17.33;56.78;100148.84;5011279;28;20246;-83
2023/07/04 00:30:08;;;;;;;9.37;3.50;;;;;;;17.32;56.71;100144.47;5012073;28;20277;-83
2023/07/04 00:32:34;;;;;;;8.00;3.33;;;;;;;17.31;56.54;100142.78;4993766;28;20224;-83
2023/07/04 00:35:03;;;;;;;9.63;4.10;;;;;;;17.30;56.48;100151.84;4996705;28;20588;-82
2023/07/04 00:37:29;;;;;;;10.03;3.53;;;;;;;17.30;56.46;100155.38;5004859;28;20236;-83
2023/07/04 00:39:56;;;;;;;7.90;3.87;;;;;;;17.31;56.62;100156.22;4992445;28;20218;-83
2023/07/04 00:42:23;;;;;;;6.80;3.57;;;;;;;17.30;56.70;100150.00;4995114;28;20260;-83
2023/07/04 00:44:55;;;;;;;8.30;3.60;;;;;;;17.31;56.88;100156.22;4991802;28;20238;-84
2023/07/04 00:47:33;;;;;;;7.40;3.67;;;;;;;17.30;56.93;100168.00;4991733;28;20277;-83
2023/07/04 00:50:07;;;;;;;9.00;3.57;;;;;;;17.31;56.75;100167.84;4991943;28;20324;-84
2023/07/04 00:52:37;;;;;;;6.63;3.40;;;;;;;17.31;56.91;100170.53;5000422;28;20211;-83
2023/07/04 00:55:08;;;;;;;5.57;3.17;;;;;;;17.29;56.90;100164.47;5011087;28;20242;-84
2023/07/04 00:57:35;;;;;;;7.57;4.37;;;;;;;17.28;56.96;100167.28;4998046;28;20211;-83
2023/07/04 01:00:13;;;;;;;10.27;3.43;;;;;;;17.24;56.73;100164.06;4996842;28;20210;-84
2023/07/04 01:02:40;;;;;;;8.63;2.33;;;;;;;17.23;56.34;100159.66;5010849;28;20197;-83
2023/07/04 01:05:08;;;;;;;8.07;3.27;;;;;;;17.24;56.28;100174.81;5011022;28;20234;-84
2023/07/04 01:07:42;;;;;;;10.53;2.60;;;;;;;17.27;56.31;100166.44;5011072;28;20225;-84
2023/07/04 01:10:12;;;;;;;6.67;2.70;;;;;;;17.26;56.18;100180.06;5008970;28;20192;-82
2023/07/04 01:12:40;;;;;;;6.97;2.90;;;;;;;17.26;56.00;100175.53;5001005;28;20208;-82
2023/07/04 01:15:08;;;;;;;8.00;2.97;;;;;;;17.28;56.10;100176.22;4997336;28;20242;-83
2023/07/04 01:17:35;;;;;;;6.47;2.70;;;;;;;17.28;56.12;100170.00;5008458;28;20220;-82
2023/07/04 01:20:06;;;;;;;8.67;2.63;;;;;;;17.30;56.18;100174.22;5010508;28;20200;-83
2023/07/04 01:22:41;;;;;;;8.93;3.07;;;;;;;17.31;56.26;100178.63;5010964;28;20195;-83
2023/07/04 01:25:14;;;;;;;6.20;2.47;;;;;;;17.29;56.40;100177.91;5010767;28;20235;-83
2023/07/04 01:27:44;;;;;;;6.07;2.53;;;;;;;17.30;56.42;100181.44;5011134;28;20195;-84
2023/07/04 01:30:13;;;;;;;6.60;2.53;;;;;;;17.29;56.39;100186.00;5013592;28;20198;-83
2023/07/04 01:32:40;;;;;;;7.03;2.57;;;;;;;17.28;56.28;100184.28;5010977;28;20886;-84
2023/07/04 01:35:11;;;;;;;6.87;2.73;;;;;;;17.29;56.76;100186.00;5011043;28;20243;-83
2023/07/04 01:37:37;;;;;;;8.30;2.60;;;;;;;17.28;56.89;100186.97;5004765;28;20203;-83
2023/07/04 01:40:07;;;;;;;7.37;2.63;;;;;;;17.28;56.91;100191.53;5010998;28;20214;-83
2023/07/04 01:42:36;;;;;;;7.50;2.40;;;;;;;17.28;57.18;100196.91;5011196;28;20207;-83
2023/07/04 01:45:06;;;;;;;6.93;2.73;;;;;;;17.23;57.50;100202.72;5014541;28;20256;-82
2023/07/04 01:47:34;;;;;;;7.13;3.00;;;;;;;17.22;57.81;100203.72;5014953;28;20188;-82
2023/07/04 01:50:02;;;;;;;5.57;2.93;;;;;;;17.21;58.91;100202.03;5014584;28;20210;-84
2023/07/04 01:52:29;;;;;;;6.80;2.80;;;;;;;17.21;60.26;100202.03;5014656;28;20213;-83
2023/07/04 01:54:56;;;;;;;8.43;2.90;;;;;;;17.19;61.53;100203.22;5014316;28;20258;-83
2023/07/04 01:57:23;;;;;;;6.47;2.40;;;;;;;17.16;62.66;100203.50;5014656;28;20206;-82
2023/07/04 01:59:50;;;;;;;6.23;2.57;;;;;;;17.10;63.63;100222.91;5014900;28;20692;-83
2023/07/04 02:02:18;;;;;;;4.13;2.20;;;;;;;17.04;64.42;100229.75;5014444;28;20703;-83
2023/07/04 02:04:44;;;;;;;5.00;2.30;;;;;;;16.92;65.43;100234.47;5004392;28;20378;-83
2023/07/04 02:07:12;;;;;;;7.83;2.20;;;;;;;16.85;65.69;100248.63;4994965;28;20219;-83
2023/07/04 02:09:38;;;;;;;4.27;1.93;;;;;;;16.73;67.36;100255.19;5003983;28;20213;-84
2023/07/04 02:12:06;;;;;;;4.43;1.60;;;;;;;16.58;69.26;100262.84;5014385;28;20263;-83
2023/07/04 02:14:32;;;;;;;4.90;1.50;;;;;;;16.40;69.99;100270.81;5013876;28;20239;-83
2023/07/04 02:16:59;;;;;;;1.83;1.17;;;;;;;16.24;70.85;100273.22;5014155;28;20580;-84
2023/07/04 02:19:27;;;;;;;2.33;0.70;;;;;;;16.10;72.18;100273.66;5014035;28;20346;-83
2023/07/04 02:21:54;;;;;;;2.30;1.20;;;;;;;15.96;73.53;100265.03;5013647;28;20215;-84
2023/07/04 02:24:20;;;;;;;4.33;1.10;;;;;;;15.85;74.23;100261.63;5013791;28;20227;-82
2023/07/04 02:26:47;;;;;;;6.47;1.40;;;;;;;15.77;75.12;100250.72;5013686;28;20222;-83
2023/07/04 02:29:13;;;;;;;2.80;1.30;;;;;;;15.69;76.39;100238.03;5013652;28;20614;-84
2023/07/04 02:31:40;;;;;;;2.63;1.60;;;;;;;15.63;77.27;100231.38;5013319;28;20208;-84
2023/07/04 02:34:06;;;;;;;4.20;1.47;;;;;;;15.59;78.24;100229.09;5013599;28;20243;-83
2023/07/04 02:36:34;;;;;;;4.03;1.83;;;;;;;15.53;78.98;100221.59;5013483;28;20220;-83
2023/07/04 02:39:00;;;;;;;4.83;1.70;;;;;;;15.48;79.78;100223.84;5013586;28;20203;-84
2023/07/04 02:41:29;;;;;;;3.30;1.60;;;;;;;15.42;80.19;100219.84;5013881;28;20214;-82
2023/07/04 02:43:56;;;;;;;5.77;1.90;;;;;;;15.35;81.12;100225.94;5013117;28;20254;-84
2023/07/04 02:46:23;;;;;;;3.10;1.70;;;;;;;15.27;81.56;100219.41;5013926;28;20207;-84
2023/07/04 02:48:49;;;;;;;3.00;1.87;;;;;;;15.23;82.12;100215.28;5014271;28;20207;-84
2023/07/04 02:51:16;;;;;;;3.73;1.47;;;;;;;15.17;82.64;100210.50;5013270;28;20210;-84
2023/07/04 02:53:44;;;;;;;4.67;2.10;;;;;;;15.12;82.98;100230.66;5012902;28;20604;-84
2023/07/04 02:56:11;;;;;;;4.60;1.50;;;;;;;15.04;83.46;100223.31;5011830;28;20234;-84
2023/07/04 02:58:37;;;;;;;2.67;1.93;;;;;;;15.00;83.97;100219.19;5013151;28;20207;-84
2023/07/04 03:01:05;;;;;;;3.60;1.70;;;;;;;14.99;84.13;100219.34;5013224;28;20242;-85
2023/07/04 03:03:31;;;;;;;2.40;1.60;;;;;;;14.94;84.60;100211.69;5013001;28;20586;-84
2023/07/04 03:05:59;;;;;;;3.37;1.50;;;;;;;14.93;84.48;100215.34;5012754;28;20207;-84
2023/07/04 03:08:26;;;;;;;2.77;1.47;;;;;;;14.90;84.54;100220.97;5012776;28;20300;-85
2023/07/04 03:10:54;;;;;;;1.63;1.20;;;;;;;14.86;85.17;100228.47;5003924;28;20207;-84
2023/07/04 03:13:20;;;;;;;2.67;1.20;;;;;;;14.84;84.70;100237.63;5014723;28;20711;-85
2023/07/04 03:15:47;;;;;;;2.67;1.20;;;;;;;14.81;85.16;100235.19;5012957;28;20719;-84
2023/07/04 03:18:13;;;;;;;3.03;1.17;;;;;;;14.79;85.14;100237.16;5014397;28;20211;-84
2023/07/04 03:20:40;;;;;;;1.60;1.10;;;;;;;14.74;85.78;100236.72;5013475;28;20202;-85
2023/07/04 03:23:06;;;;;;;2.37;1.33;;;;;;;14.71;85.22;100239.66;5012929;28;20211;-85
2023/07/04 03:25:33;;;;;;;3.23;1.40;;;;;;;14.70;85.02;100252.22;5005243;28;20264;-85
2023/07/04 03:28:00;;;;;;;3.57;1.67;;;;;;;14.67;84.90;100257.00;4993368;28;20204;-83
2023/07/04 03:30:27;;;;;;;2.23;1.30;;;;;;;14.63;84.97;100261.78;4993232;28;20194;-85
2023/07/04 03:32:53;;;;;;;2.50;1.30;;;;;;;14.62;84.80;100269.94;4992750;28;20218;-84
2023/07/04 03:35:20;;;;;;;2.50;1.30;;;;;;;14.63;84.94;100279.69;4993114;28;20231;-85
2023/07/04 03:37:46;;;;;;;4.93;1.40;;;;;;;14.61;84.56;100269.09;5003164;28;20210;-85
2023/07/04 03:40:14;;;;;;;2.93;1.30;;;;;;;14.62;84.34;100262.75;5006624;28;20207;-85
2023/07/04 03:42:41;;;;;;;3.17;1.30;;;;;;;14.58;83.62;100286.28;5012293;28;20210;-85
2023/07/04 03:45:09;;;;;;;1.57;1.00;;;;;;;14.54;83.32;100284.84;5007773;28;20227;-85
2023/07/04 03:47:36;;;;;;;3.60;0.93;;;;;;;14.49;83.33;100286.25;4992897;28;20204;-85
2023/07/04 03:50:03;;;;;;;3.17;1.07;;;;;;;14.46;83.18;100291.84;4992707;28;20583;-84
2023/07/04 03:52:29;;;;;;;3.00;1.03;;;;;;;14.41;83.11;100294.91;4992666;28;20666;-85
2023/07/04 03:54:56;;;;;;;2.20;1.03;;;;;;;14.39;83.49;100290.63;5000764;28;20239;-85
2023/07/04 03:57:23;;;;;;;1.83;1.13;;;;;;;14.36;84.08;100274.81;5007874;28;20562;-84
2023/07/04 03:59:49;;;;;;;3.27;1.10;;;;;;;14.35;84.07;100268.59;5012059;28;20210;-85
2023/07/04 04:02:17;;;;;;;1.73;1.10;;;;;;;14.33;84.50;100275.91;5006687;28;20204;-86
2023/07/04 04:04:44;;;;;;;1.57;1.00;;;;;;;14.34;84.55;100269.59;5000473;28;20294;-84
2023/07/04 04:07:11;;;;;;;2.53;1.40;;;;;;;14.33;84.54;100265.19;5004538;28;20589;-85
2023/07/04 04:09:39;;;;;;;2.60;1.23;;;;;;;14.31;85.18;100269.00;4994212;28;20204;-84
2023/07/04 04:12:08;;;;;;;2.70;1.37;;;;;;;14.31;85.48;100272.53;4992483;28;20211;-84
2023/07/04 04:14:36;;;;;;;4.03;1.17;;;;;;;14.33;85.33;100275.09;4992686;28;20234;-85
2023/07/04 04:17:03;;;;;;;3.50;1.57;;;;;;;14.34;85.38;100282.97;5006089;28;20346;-85
2023/07/04 04:19:31;;;;;;;2.40;1.10;;;;;;;14.36;85.41;100286.38;5011686;28;20590;-83
2023/07/04 04:21:58;;;;;;;5.33;1.00;;;;;;;14.36;85.11;100290.88;5011581;28;20211;-85
2023/07/04 04:24:24;;;;;;;4.17;1.20;;;;;;;14.32;84.63;100284.09;4997251;28;20238;-84
2023/07/04 04:26:51;;;;;;;4.27;0.93;;;;;;;14.32;84.58;100284.97;4998025;28;20654;-85
2023/07/04 04:29:19;;;;;;;2.53;1.07;;;;;;;14.29;83.54;100295.94;5007839;28;20207;-85
2023/07/04 04:31:47;;;;;;;3.60;1.00;;;;;;;14.25;83.13;100305.19;5006509;28;20227;-85
2023/07/04 04:34:16;;;;;;;5.23;1.60;;;;;;;14.24;82.75;100304.34;5008215;28;20251;-85
2023/07/04 04:36:44;;;;;;;1.73;0.80;;;;;;;14.23;82.51;100297.28;5002764;28;20203;-84
2023/07/04 04:39:11;;;;;;;1.80;1.00;;;;;;;14.21;82.82;100293.03;5004155;28;20225;-84
2023/07/04 04:41:37;;;;;;;2.10;1.10;;;;;;;14.20;82.38;100285.97;5011656;28;20312;-85
2023/07/04 04:44:04;;;;;;;2.43;0.90;;;;;;;14.21;82.59;100285.00;5010948;28;20239;-85
2023/07/04 04:46:31;;;;;;;1.70;0.97;;;;;;;14.22;82.43;100290.22;5004173;28;20286;-84
2023/07/04 04:48:58;;;;;;;3.30;1.50;;;;;;;14.21;82.39;100293.03;4991832;28;20212;-84
2023/07/04 04:51:25;;;;;;;3.00;0.87;;;;;;;14.20;82.37;100288.66;4991414;28;20738;-85
2023/07/04 04:53:53;;;;;;;2.13;1.30;;;;;;;14.22;82.15;100300.09;4991986;28;20235;-83
2023/07/04 04:56:20;;;;;;;3.47;1.20;;;;;;;14.22;82.13;100310.81;4991642;28;20270;-85
2023/07/04 04:58:46;;;;;;;2.67;1.03;;;;;;;14.24;82.75;100311.53;4991610;28;20223;-85
2023/07/04 05:01:15;;;;;;;3.40;0.67;;;;;;;14.28;82.16;100304.09;4999246;28;20204;-85
2023/07/04 05:03:42;;;;;;;3.43;1.63;;;;;;;14.31;82.59;100304.69;5007845;28;20292;-83
2023/07/04 05:06:09;;;;;;;2.87;1.07;;;;;;;14.34;82.05;100309.75;5011492;28;20664;-84
2023/07/04 05:08:36;;;;;;;4.07;1.40;;;;;;;14.38;82.02;100316.56;5011136;28;20212;-84
2023/07/04 05:11:06;;;;;;;1.43;0.80;;;;;;;14.40;81.04;100320.00;5000499;28;20264;-84
2023/07/04 05:13:33;;;;;;;3.07;0.90;;;;;;;14.44;81.14;100323.28;4991659;28;20211;-84
2023/07/04 05:16:00;;;;;;;1.60;1.30;;;;;;;14.48;80.60;100328.25;4991122;28;20224;-85
2023/07/04 05:18:27;;;;;;;1.83;1.10;;;;;;;14.54;80.07;100333.06;4994892;28;20237;-85
2023/07/04 05:21:00;;;;;;;4.67;1.07;;;;;;;14.57;80.09;100311.38;4997999;28;20574;-85
2023/07/04 05:23:26;;;;;;;4.27;1.07;;;;;;;14.62;79.97;100324.41;4997713;28;20204;-85
2023/07/04 05:26:00;;;;;;;2.13;1.10;;;;;;;14.70;79.79;100323.72;4997833;28;20203;-85
2023/07/04 05:28:28;;;;;;;3.07;1.20;;;;;;;14.73;79.19;100328.84;5003525;28;20204;-85
2023/07/04 05:30:58;;;;;;;3.27;1.37;;;;;;;14.78;78.95;100327.47;5017570;28;20215;-85
2023/07/04 05:33:25;;;;;;;3.27;1.30;;;;;;;14.80;78.62;100328.19;5017464;28;20245;-85
2023/07/04 05:35:51;;;;;;;3.33;1.30;;;;;;;14.82;77.98;100331.59;5017185;28;20230;-85
2023/07/04 05:38:17;;;;;;;2.43;1.30;;;;;;;14.83;78.23;100325.25;5017970;28;20222;-84
2023/07/04 05:40:44;;;;;;;3.97;1.37;;;;;;;14.90;77.72;100331.75;5012098;28;20217;-85
2023/07/04 05:43:11;;;;;;;2.57;1.30;;;;;;;14.94;77.96;100335.88;5017498;28;20223;-85
2023/07/04 05:45:47;;;;;;;2.00;1.60;;;;;;;14.98;78.27;100341.84;5017308;28;20227;-85
2023/07/04 05:48:13;;;;;;;3.27;1.70;;;;;;;15.02;77.64;100343.28;5013661;28;20211;-85
2023/07/04 05:50:50;;;;;;;5.40;1.70;;;;;;;15.07;78.19;100357.13;4997645;28;20278;-85
2023/07/04 05:53:16;;;;;;;4.83;1.67;;;;;;;15.15;77.27;100343.91;4997614;28;20203;-84
2023/07/04 05:55:43;;;;;;;4.47;2.10;;;;;;;15.20;77.65;100357.78;5005171;28;20761;-84
2023/07/04 05:58:09;;;;;;;4.23;1.90;;;;;;;15.24;77.92;100345.75;5017687;28;20608;-84
2023/07/04 06:00:36;;;;;;;4.17;2.03;;;;;;;15.28;77.59;100354.41;5017693;28;20209;-84
2023/07/04 06:03:04;;;;;;;6.30;2.53;;;;;;;15.31;77.49;100364.03;5015426;28;20740;-85
2023/07/04 06:05:31;;;;;;;5.13;1.90;;;;;;;15.37;77.47;100345.56;5001685;28;20217;-85
2023/07/04 06:07:57;;;;;;;5.33;2.30;;;;;;;15.39;77.67;100356.16;5007646;28;20207;-85
2023/07/04 06:10:24;;;;;;;5.27;2.30;;;;;;;15.40;77.45;100342.63;5017127;28;20207;-84
2023/07/04 06:12:50;;;;;;;4.40;2.30;;;;;;;15.45;77.67;100350.22;5008586;28;20200;-84
2023/07/04 06:15:17;;;;;;;3.80;1.90;;;;;;;15.52;76.51;100348.72;5016798;28;20256;-84
2023/07/04 06:17:44;;;;;;;3.00;2.17;;;;;;;15.55;76.09;100352.03;5009089;28;20201;-84
2023/07/04 06:20:13;;;;;;;4.20;2.57;;;;;;;15.55;76.37;100356.50;5004989;28;20200;-85
2023/07/04 06:22:39;;;;;;;5.07;1.97;;;;;;;15.55;76.04;100357.38;5012418;28;20198;-84
2023/07/04 06:25:07;;;;;;;4.07;1.90;;;;;;;15.58;75.78;100350.91;5001011;28;20236;-84
2023/07/04 06:27:34;;;;;;;6.27;2.23;;;;;;;15.64;75.38;100347.66;5012204;28;20249;-84
2023/07/04 06:30:00;;;;;;;4.17;2.17;;;;;;;15.65;75.14;100346.66;4997828;28;20216;-84
2023/07/04 06:32:27;;;;;;;4.90;2.30;;;;;;;15.71;74.78;100361.38;4994440;28;20219;-85
2023/07/04 06:34:53;;;;;;;4.53;2.20;;;;;;;15.74;74.64;100359.28;4997621;28;20227;-85
2023/07/04 06:37:21;;;;;;;5.13;1.93;;;;;;;15.79;73.93;100366.91;5014014;28;20599;-84
2023/07/04 06:39:48;;;;;;;5.10;2.67;;;;;;;15.86;74.67;100358.19;5013359;28;20212;-84
2023/07/04 06:42:14;;;;;;;4.70;2.63;;;;;;;15.94;74.41;100363.69;5013671;28;20905;-84
2023/07/04 06:44:44;;;;;;;6.30;2.23;;;;;;;16.05;74.06;100360.06;5013405;28;20244;-84
2023/07/04 06:47:11;;;;;;;5.17;2.37;;;;;;;16.14;73.15;100361.03;5013826;28;20589;-83
2023/07/04 06:49:37;;;;;;;3.93;2.10;;;;;;;16.24;72.09;100361.91;5003623;28;20202;-83
2023/07/04 06:52:04;;;;;;;5.50;2.03;;;;;;;16.33;71.95;100359.22;5005261;28;20210;-84
2023/07/04 06:54:33;;;;;;;4.43;2.10;;;;;;;16.43;71.48;100364.59;5012843;28;20234;-84
2023/07/04 06:57:04;;;;;;;5.00;2.30;;;;;;;16.47;70.82;100371.41;5003394;28;20234;-84
2023/07/04 06:59:30;;;;;;;4.30;2.87;;;;;;;16.50;70.10;100376.47;5007312;28;20192;-83
2023/07/04 07:01:57;;;;;;;8.27;2.93;;;;;;;16.50;70.14;100379.16;5010494;28;20217;-83
2023/07/04 07:04:23;;;;;;;7.03;3.60;;;;;;;16.56;70.26;100378.59;5013406;28;20228;-84
2023/07/04 07:06:50;;;;;;;10.10;3.80;;;;;;;16.63;70.03;100379.78;4999709;28;20222;-84
2023/07/04 07:09:17;;;;;;;10.30;3.93;;;;;;;16.67;70.31;100378.47;5012695;28;20211;-84
2023/07/04 07:11:45;;;;;;;8.07;3.70;;;;;;;16.76;70.71;100387.53;5012517;28;20213;-83
2023/07/04 07:14:12;;;;;;;7.47;4.50;;;;;;;16.84;71.19;100389.53;5012729;28;20219;-87
2023/07/04 07:16:38;;;;;;;8.13;4.03;;;;;;;16.89;71.31;100398.00;5011864;28;20327;-83
2023/07/04 07:19:06;;;;;;;5.33;4.30;;;;;;;16.88;72.28;100398.97;5002625;28;20208;-84
2023/07/04 07:21:32;;;;;;;6.57;3.70;;;;;;;16.86;72.78;100391.06;4998981;28;20216;-83
2023/07/04 07:24:01;;;;;;;8.70;3.90;;;;;;;16.87;72.24;100397.28;4995278;28;20237;-84
2023/07/04 07:26:28;;;;;;;8.03;3.80;;;;;;;16.88;72.15;100398.97;4996361;28;20204;-84
2023/07/04 07:28:56;;;;;;;9.33;4.27;;;;;;;16.87;72.62;100405.34;5012848;28;20207;-82
2023/07/04 07:31:25;;;;;;;6.77;3.60;;;;;;;16.89;72.92;100404.22;5011920;28;20555;-84
2023/07/04 07:33:53;;;;;;;6.03;3.60;;;;;;;16.98;72.74;100414.13;5012415;28;20240;-85
2023/07/04 07:36:21;;;;;;;8.60;3.70;;;;;;;17.05;72.59;100403.63;5012287;28;20330;-83
2023/07/04 07:38:49;;;;;;;6.33;2.80;;;;;;;17.14;71.46;100418.91;4997482;28;20665;-86
2023/07/04 07:41:16;;;;;;;4.03;3.10;;;;;;;17.20;69.53;100421.00;5012923;28;20214;-82
2023/07/04 07:43:43;;;;;;;5.53;2.53;;;;;;;17.18;68.50;100433.78;4997083;28;20207;-83
2023/07/04 07:46:13;;;;;;;4.43;2.60;;;;;;;17.14;68.10;100423.44;4995499;28;20202;-83
2023/07/04 07:48:40;;;;;;;3.67;2.40;;;;;;;17.10;68.22;100433.66;5005533;28;20203;-83
2023/07/04 07:51:09;;;;;;;4.73;2.40;;;;;;;17.12;68.10;100437.03;5002202;28;20203;-83
2023/07/04 07:53:36;;;;;;;3.50;2.30;;;;;;;17.09;68.15;100431.94;4998789;28;20208;-83
2023/07/04 07:56:03;;;;;;;6.27;2.63;;;;;;;17.10;68.11;100430.97;5005433;28;20227;-83
2023/07/04 07:58:30;;;;;;;5.90;2.20;;;;;;;17.11;67.83;100437.19;5011303;28;20207;-83
2023/07/04 08:00:56;;;;;;;6.33;2.27;;;;;;;17.11;67.67;100434.50;5001314;28;20207;-84
2023/07/04 08:03:24;;;;;;;6.67;2.43;;;;;;;17.10;67.27;100451.63;5011727;28;20211;-84
2023/07/04 08:05:51;;;;;;;5.10;2.03;;;;;;;17.11;67.56;100448.81;5011504;28;20234;-84
2023/07/04 08:08:18;;;;;;;3.93;2.20;;;;;;;17.10;66.70;100447.09;5011955;28;20213;-84
2023/07/04 08:10:44;;;;;;;4.10;1.93;;;;;;;17.08;66.27;100451.78;5011989;28;20218;-84
2023/07/04 08:13:12;;;;;;;3.70;2.30;;;;;;;17.09;66.53;100448.09;5009411;28;20215;-83
2023/07/04 08:15:38;;;;;;;5.67;2.53;;;;;;;17.10;66.78;100454.31;5006037;28;20224;-84
2023/07/04 08:18:06;;;;;;;10.37;2.47;;;;;;;17.11;67.07;100446.13;4995316;28;20210;-84
2023/07/04 08:20:34;;;;;;;4.37;2.33;;;;;;;17.16;67.22;100448.38;4992332;28;20301;-84
2023/07/04 08:23:01;;;;;;;5.60;2.30;;;;;;;17.20;67.08;100453.31;4991490;28;20215;-84
2023/07/04 08:25:28;;;;;;;3.67;1.87;;;;;;;17.22;67.31;100448.63;4996367;28;20633;-82
2023/07/04 08:27:55;;;;;;;5.13;2.30;;;;;;;17.27;66.93;100440.97;5003448;28;20200;-84
2023/07/04 08:30:22;;;;;;;4.00;1.80;;;;;;;17.30;66.08;100443.38;4995826;28;20199;-84
2023/07/04 08:32:48;;;;;;;9.00;3.10;;;;;;;17.34;66.06;100447.50;5005202;28;20200;-84
2023/07/04 08:35:15;;;;;;;5.63;2.10;;;;;;;17.43;65.61;100442.22;5011199;28;20230;-84
2023/07/04 08:37:42;;;;;;;4.53;2.20;;;;;;;17.50;65.34;100441.50;5004899;28;20231;-84
2023/07/04 08:40:12;;;;;;;4.50;2.20;;;;;;;17.65;65.85;100437.34;4997837;28;20219;-84
2023/07/04 08:42:39;;;;;;;5.20;2.10;;;;;;;17.85;64.61;100440.81;4992075;28;20201;-83
2023/07/04 08:45:12;;;;;;;3.93;2.07;;;;;;;18.00;63.61;100441.16;4996837;28;20239;-84
2023/07/04 08:47:40;;;;;;;3.80;1.77;;;;;;;18.16;62.70;100448.59;5010722;28;20199;-84
2023/07/04 08:50:12;;;;;;;2.27;1.20;;;;;;;18.23;62.08;100450.56;5011321;28;20212;-84
2023/07/04 08:52:45;;;;;;;4.87;1.80;;;;;;;18.36;61.17;100460.97;5004497;28;20209;-83
2023/07/04 08:55:14;;;;;;;3.10;1.30;;;;;;;18.46;60.79;100444.72;4999471;28;20221;-83
2023/07/04 08:57:46;;;;;;;4.07;1.63;;;;;;;18.63;61.57;100458.22;4997335;28;20281;-83
2023/07/04 09:00:20;;;;;;;2.67;1.17;;;;;;;18.82;60.21;100454.53;5010871;28;20201;-84
2023/07/04 09:03:27;;;;;;;2.97;1.37;;;;;;;19.01;59.33;100451.66;5010983;28;20197;-84
2023/07/04 09:06:04;;;;;;;3.23;1.30;;;;;;;19.19;57.50;100465.13;4930600;29;20200;-83
2023/07/04 09:08:45;;;;;;;1.93;1.00;;;;;;;19.32;57.07;100468.31;4930458;29;20202;-83
2023/07/04 09:11:13;;;;;;;2.77;1.20;;;;;;;19.41;56.22;100469.19;4971795;28;20218;-84
2023/07/04 09:13:42;;;;;;;8.87;2.00;;;;;;;19.55;56.37;100467.78;4994606;28;20828;-83
2023/07/04 09:16:12;;;;;;;2.23;1.30;;;;;;;19.61;56.04;100475.25;5000766;28;20316;-82
2023/07/04 09:18:47;;;;;;;4.90;1.23;;;;;;;19.67;55.28;100483.59;5005843;28;20214;-83
2023/07/04 09:21:16;;;;;;;5.03;1.33;;;;;;;19.78;55.13;100474.34;5004896;28;20639;-84
2023/07/04 09:23:46;;;;;;;6.10;1.67;;;;;;;19.80;53.61;100485.00;5010520;28;20592;-83
2023/07/04 09:26:15;;;;;;;3.20;1.67;;;;;;;19.84;53.52;100478.28;5005492;28;20222;-82
2023/07/04 09:28:44;;;;;;;2.40;1.10;;;;;;;19.94;52.69;100482.53;5008574;28;20219;-82
2023/07/04 09:31:20;;;;;;;3.20;1.20;;;;;;;20.04;52.50;100472.47;5010826;28;20685;-82
2023/07/04 09:33:49;;;;;;;4.07;1.30;;;;;;;20.18;51.50;100467.44;5010651;28;20185;-82
2023/07/04 09:36:18;;;;;;;4.73;1.53;;;;;;;20.31;51.89;100474.06;5010664;28;20226;-82
2023/07/04 09:38:54;;;;;;;4.33;1.47;;;;;;;20.50;51.71;100483.81;5010775;28;20682;-83
2023/07/04 09:41:25;;;;;;;3.92;1.40;;;;;;;20.56;49.95;100488.56;5010608;28;20244;-83
2023/07/04 09:43:52;;;;;;;5.75;1.50;;;;;;;20.64;49.68;100493.97;5009858;28;20241;-82
2023/07/04 09:46:25;;;;;;;4.82;1.30;;;;;;;20.78;50.23;100481.69;5010512;28;20205;-83
2023/07/04 09:48:52;;;;;;;2.28;1.25;;;;;;;20.98;50.48;100474.91;5010255;28;20206;-82
2023/07/04 09:51:28;;;;;;;4.45;1.50;;;;;;;21.16;50.21;100474.75;4999373;28;20199;-83
2023/07/04 09:54:13;;;;;;;7.50;1.95;;;;;;;21.34;50.04;100478.16;4990482;28;20233;-83
2023/07/04 09:56:40;;;;;;;3.55;1.48;;;;;;;21.34;47.91;100467.31;4991072;28;20211;-83
2023/07/04 09:59:16;;;;;;;4.45;1.65;;;;;;;21.38;48.90;100471.38;4990863;28;20219;-84
2023/07/04 10:01:44;;;;;;;3.67;1.60;;;;;;;21.50;49.64;100471.03;4990762;28;20207;-83
2023/07/04 10:04:12;;;;;;;2.65;1.45;;;;;;;21.62;48.73;100466.94;5007109;28;20230;-82
2023/07/04 10:06:43;;;;;;;5.10;1.83;;;;;;;21.62;47.59;100464.22;5012924;28;20213;-83
2023/07/04 10:09:19;;;;;;;4.30;1.42;;;;;;;21.62;47.75;100473.22;4994143;28;20210;-83
2023/07/04 10:11:47;;;;;;;3.08;1.55;;;;;;;21.68;47.91;100468.94;5000507;28;20210;-83
2023/07/04 10:14:15;;;;;;;3.72;1.48;;;;;;;21.72;47.65;100470.28;4997894;28;20238;-83
2023/07/04 10:16:47;;;;;;;7.00;1.88;;;;;;;21.78;47.30;100462.31;5006929;28;20313;-83
2023/07/04 10:19:16;;;;;;;3.97;2.00;;;;;;;21.79;46.77;100455.03;5005245;28;20226;-83
2023/07/04 10:21:43;;;;;;;5.95;1.85;;;;;;;21.86;47.48;100464.16;5005362;28;20222;-83
2023/07/04 10:24:18;;;;;;;3.22;1.63;;;;;;;21.87;45.82;100457.69;5002584;28;20234;-83
2023/07/04 10:26:45;;;;;;;3.67;1.77;;;;;;;21.93;45.55;100457.00;5006181;28;20198;-83
2023/07/04 10:29:13;;;;;;;5.32;1.90;;;;;;;21.95;45.33;100446.84;5004419;28;20560;-83
2023/07/04 10:31:40;;;;;;;3.42;2.08;;;;;;;22.00;45.71;100449.91;5010800;28;20253;-83
2023/07/04 10:34:10;;;;;;;6.10;2.17;;;;;;;22.14;46.03;100446.47;5006229;28;20227;-83
2023/07/04 10:36:38;;;;;;;4.65;2.05;;;;;;;22.25;45.50;100449.78;5008511;28;20234;-83
2023/07/04 10:39:10;;;;;;;4.70;2.28;;;;;;;22.35;45.36;100451.28;5007589;28;20203;-84
2023/07/04 10:41:42;;;;;;;4.18;2.20;;;;;;;22.34;45.00;100452.28;5007137;28;20676;-83
2023/07/04 10:44:13;;;;;;;4.80;2.00;;;;;;;22.36;45.43;100443.97;4996680;28;20775;-83
2023/07/04 10:46:45;;;;;;;6.18;2.03;;;;;;;22.40;46.16;100445.28;5002463;28;20211;-83
2023/07/04 10:49:17;;;;;;;5.30;2.17;;;;;;;22.48;45.99;100446.09;5005233;28;20199;-83
2023/07/04 10:51:48;;;;;;;5.70;2.40;;;;;;;22.48;44.96;100445.25;5010642;28;20203;-83
2023/07/04 10:54:14;;;;;;;5.40;2.33;;;;;;;22.57;45.90;100448.78;5010425;28;20222;-83
2023/07/04 10:56:46;;;;;;;5.00;2.83;;;;;;;22.63;45.68;100438.03;5008072;28;20235;-83
2023/07/04 10:59:18;;;;;;;4.95;2.30;;;;;;;22.71;45.86;100429.00;5005573;28;20210;-83
2023/07/04 11:01:51;;;;;;;6.43;2.92;;;;;;;22.77;45.23;100422.84;5010300;28;20705;-84
2023/07/04 11:04:22;;;;;;;6.25;2.50;;;;;;;22.81;44.43;100427.75;5009923;28;20648;-84
2023/07/04 11:06:56;;;;;;;5.57;2.28;;;;;;;22.82;43.71;100425.88;5008447;28;20199;-84
2023/07/04 11:09:23;;;;;;;6.07;2.80;;;;;;;22.87;44.00;100422.63;5011653;28;20210;-84
2023/07/04 11:11:52;;;;;;;6.78;2.80;;;;;;;22.95;44.21;100419.81;5012245;28;20216;-84
2023/07/04 11:14:25;;;;;;;5.50;2.50;;;;;;;23.02;43.91;100428.94;5008998;28;20250;-83
2023/07/04 11:16:55;;;;;;;5.60;2.72;;;;;;;23.04;43.65;100433.16;5001442;28;20220;-83
2023/07/04 11:19:25;;;;;;;5.10;2.47;;;;;;;23.05;43.70;100426.72;5004006;28;20214;-84
2023/07/04 11:22:10;;;;;;;7.25;2.75;;;;;;;23.10;43.55;100437.03;5010475;28;20211;-83
2023/07/04 11:24:38;;;;;;;5.00;2.63;;;;;;;23.15;43.33;100437.31;5004003;28;20223;-83
2023/07/04 11:27:13;;;;;;;5.22;2.92;;;;;;;23.19;42.90;100441.34;5009760;28;20592;-84
2023/07/04 11:29:49;;;;;;;4.07;2.60;;;;;;;23.25;43.15;100437.91;5009216;28;20232;-83